createdAt,value
2023-03-26T00:01:29.692Z,99815.66
2023-03-26T00:03:58.027Z,99823.94
2023-03-26T00:06:29.347Z,99823.94
2023-03-26T00:08:58.433Z,99830.69
2023-03-26T00:11:28.860Z,99831.56
2023-03-26T00:13:57.698Z,99837.28
2023-03-26T00:16:29.624Z,99836.50
2023-03-26T00:18:58.235Z,99845.94
2023-03-26T00:21:28.718Z,99839.72
2023-03-26T00:24:00.333Z,99848.09
2023-03-26T00:26:31.010Z,99853.81
2023-03-26T00:29:00.108Z,99850.59
2023-03-26T00:31:27.680Z,99842.03
2023-03-26T00:33:55.630Z,99849.56
2023-03-26T00:36:26.652Z,99849.81
2023-03-26T00:38:54.849Z,99852.84
2023-03-26T00:41:26.130Z,99848.00
2023-03-26T00:43:58.463Z,99838.16
2023-03-26T00:46:28.521Z,99847.19
2023-03-26T00:48:59.061Z,99847.19
2023-03-26T00:51:28.363Z,99845.34
2023-03-26T00:53:56.730Z,99842.03
2023-03-26T00:56:24.062Z,99854.00
2023-03-26T00:58:51.308Z,99849.50
2023-03-26T01:01:29.121Z,99855.41
2023-03-26T01:04:18.509Z,99852.09
2023-03-26T01:06:46.773Z,99854.88
2023-03-26T01:09:18.886Z,99840.75
2023-03-26T01:11:47.814Z,99857.28
2023-03-26T01:14:19.702Z,99858.31
2023-03-26T01:17:02.296Z,99856.44
2023-03-26T01:19:49.969Z,99859.78
2023-03-26T01:22:22.251Z,99860.75
2023-03-26T01:24:53.886Z,99854.75
2023-03-26T01:27:38.954Z,99859.78
2023-03-26T01:30:17.474Z,99860.47
2023-03-26T01:32:57.770Z,99861.25
2023-03-26T01:35:36.466Z,99873.47
2023-03-26T01:38:27.788Z,99871.94
2023-03-26T01:41:09.599Z,99880.41
2023-03-26T01:43:56.357Z,99881.09
2023-03-26T01:46:25.596Z,99874.63
2023-03-26T01:48:52.828Z,99872.13
2023-03-26T01:51:33.998Z,99874.63
2023-03-26T01:54:04.274Z,99877.28
2023-03-26T01:56:54.638Z,99874.63
2023-03-26T01:59:43.824Z,99882.13
2023-03-26T02:02:26.329Z,99879.38
2023-03-26T02:05:05.463Z,99874.53
2023-03-26T02:07:50.901Z,99873.72
2023-03-26T02:10:29.305Z,99879.69
2023-03-26T02:12:59.550Z,99875.53
2023-03-26T02:15:26.955Z,99862.22
2023-03-26T02:17:54.371Z,99873.75
2023-03-26T02:20:22.146Z,99879.00
2023-03-26T02:22:49.301Z,99871.13
2023-03-26T02:25:20.337Z,99870.91
2023-03-26T02:27:51.962Z,99871.94
2023-03-26T02:30:29.547Z,99873.91
2023-03-26T02:32:59.103Z,99869.09
2023-03-26T02:35:26.720Z,99874.16
2023-03-26T02:37:54.033Z,99878.03
2023-03-26T02:40:22.391Z,99875.34
2023-03-26T02:42:49.774Z,99877.41
2023-03-26T02:45:17.142Z,99875.22
2023-03-26T02:47:46.090Z,99878.38
2023-03-26T02:50:13.340Z,99878.97
2023-03-26T02:52:40.471Z,99872.34
2023-03-26T02:55:08.210Z,99867.53
2023-03-26T02:57:35.577Z,99874.97
2023-03-26T03:00:15.184Z,99876.56
2023-03-26T03:02:44.304Z,99869.63
2023-03-26T03:05:11.692Z,99876.09
2023-03-26T03:07:38.904Z,99879.22
2023-03-26T03:10:08.615Z,99873.75
2023-03-26T03:12:36.734Z,99880.19
2023-03-26T03:15:04.178Z,99876.84
2023-03-26T03:17:31.400Z,99882.59
2023-03-26T03:19:58.918Z,99875.63
2023-03-26T03:22:26.169Z,99882.59
2023-03-26T03:24:53.311Z,99883.06
2023-03-26T03:27:22.212Z,99875.56
2023-03-26T03:29:49.386Z,99878.31
2023-03-26T03:32:16.511Z,99878.53
2023-03-26T03:34:43.649Z,99881.47
2023-03-26T03:37:10.925Z,99885.00
2023-03-26T03:39:38.066Z,99899.47
2023-03-26T03:42:05.218Z,99890.47
2023-03-26T03:44:32.342Z,99884.38
2023-03-26T03:46:59.516Z,99891.84
2023-03-26T03:49:26.678Z,99892.41
2023-03-26T03:51:53.836Z,99893.50
2023-03-26T03:54:20.982Z,99892.69
2023-03-26T03:56:49.051Z,99895.00
2023-03-26T03:59:16.254Z,99891.25
2023-03-26T04:01:46.620Z,99889.75
2023-03-26T04:04:13.887Z,99887.09
2023-03-26T04:06:41.106Z,99885.44
2023-03-26T04:09:10.219Z,99878.09
2023-03-26T04:11:37.386Z,99880.19
2023-03-26T04:14:04.545Z,99885.38
2023-03-26T04:16:32.439Z,99882.00
2023-03-26T04:19:02.230Z,99880.34
2023-03-26T04:21:30.492Z,99879.69
2023-03-26T04:23:57.669Z,99878.91
2023-03-26T04:26:25.035Z,99887.66
2023-03-26T04:28:59.977Z,99873.22
2023-03-26T04:31:31.821Z,99874.31
2023-03-26T04:34:20.035Z,99876.88
2023-03-26T04:36:47.228Z,99873.03
2023-03-26T04:39:14.445Z,99870.69
2023-03-26T04:41:41.671Z,99873.22
2023-03-26T04:44:08.788Z,99873.63
2023-03-26T04:46:35.992Z,99872.63
2023-03-26T04:49:03.246Z,99864.25
2023-03-26T04:51:38.763Z,99875.47
2023-03-26T04:54:07.130Z,99872.34
2023-03-26T04:56:58.034Z,99880.50
2023-03-26T04:59:35.614Z,99870.78
2023-03-26T05:02:06.142Z,99871.22
2023-03-26T05:04:36.648Z,99862.66
2023-03-26T05:07:03.983Z,99863.53
2023-03-26T05:09:31.279Z,99864.09
2023-03-26T05:11:58.407Z,99867.28
2023-03-26T05:14:25.539Z,99863.44
2023-03-26T05:16:53.328Z,99870.44
2023-03-26T05:19:20.940Z,99872.03
2023-03-26T05:21:48.292Z,99866.56
2023-03-26T05:24:15.695Z,99876.09
2023-03-26T05:26:42.966Z,99871.22
2023-03-26T05:29:10.169Z,99863.75
2023-03-26T05:31:37.825Z,99877.03
2023-03-26T05:34:05.028Z,99876.03
2023-03-26T05:36:32.213Z,99866.81
2023-03-26T05:38:59.379Z,99869.41
2023-03-26T05:41:26.799Z,99866.34
2023-03-26T05:43:53.962Z,99864.56
2023-03-26T05:46:23.076Z,99864.69
2023-03-26T05:48:51.938Z,99867.91
2023-03-26T05:51:19.178Z,99869.13
2023-03-26T05:53:46.340Z,99862.06
2023-03-26T05:56:13.551Z,99868.88
2023-03-26T05:58:42.045Z,99863.91
2023-03-26T06:01:16.534Z,99868.00
2023-03-26T06:03:45.645Z,99856.94
2023-03-26T06:06:16.849Z,99858.78
2023-03-26T06:09:01.560Z,99857.25
2023-03-26T06:11:32.969Z,99853.94
2023-03-26T06:14:00.957Z,99853.94
2023-03-26T06:16:28.447Z,99850.88
2023-03-26T06:18:57.696Z,99843.34
2023-03-26T06:21:26.547Z,99840.78
2023-03-26T06:23:54.369Z,99842.28
2023-03-26T06:26:21.989Z,99839.59
2023-03-26T06:28:49.475Z,99841.91
2023-03-26T06:33:44.454Z,99850.97
2023-03-26T06:36:11.725Z,99837.66
2023-03-26T06:38:38.989Z,99842.84
2023-03-26T06:41:06.713Z,99838.78
2023-03-26T06:43:34.072Z,99841.41
2023-03-26T06:46:02.586Z,99838.13
2023-03-26T06:48:29.740Z,99830.53
2023-03-26T06:50:57.108Z,99834.44
2023-03-26T06:53:24.279Z,99839.72
2023-03-26T06:55:54.391Z,99844.72
2023-03-26T06:58:22.312Z,99838.25
2023-03-26T07:00:54.244Z,99853.22
2023-03-26T07:03:22.282Z,99847.41
2023-03-26T07:05:49.494Z,99850.94
2023-03-26T07:08:16.675Z,99855.81
2023-03-26T07:10:44.281Z,99855.06
2023-03-26T07:13:11.436Z,99850.38
2023-03-26T07:15:38.658Z,99841.97
2023-03-26T07:18:06.417Z,99843.88
2023-03-26T07:20:33.891Z,99840.28
2023-03-26T07:23:01.498Z,99843.97
2023-03-26T07:25:29.125Z,99836.53
2023-03-26T07:28:20.764Z,99837.31
2023-03-26T07:31:20.438Z,99825.41
2023-03-26T07:34:02.410Z,99829.09
2023-03-26T07:36:45.336Z,99830.81
2023-03-26T07:39:57.744Z,99831.28
2023-03-26T07:42:44.199Z,99829.31
2023-03-26T07:45:46.803Z,99814.91
2023-03-26T07:48:20.001Z,99819.47
2023-03-26T07:50:48.587Z,99825.06
2023-03-26T07:53:16.010Z,99821.47
2023-03-26T07:56:36.922Z,99820.41
2023-03-26T07:59:22.307Z,99824.72
2023-03-26T08:02:21.513Z,99824.81
2023-03-26T08:05:46.384Z,99823.53
2023-03-26T08:08:25.809Z,99818.28
2023-03-26T08:11:07.185Z,99813.72
2023-03-26T08:13:56.960Z,99812.97
2023-03-26T08:16:36.768Z,99822.50
2023-03-26T08:19:38.659Z,99822.53
2023-03-26T08:22:20.702Z,99816.84
2023-03-26T08:25:19.681Z,99805.41
2023-03-26T08:28:10.620Z,99815.81
2023-03-26T08:30:37.874Z,99810.25
2023-03-26T08:33:17.914Z,99810.38
2023-03-26T08:35:46.621Z,99804.72
2023-03-26T08:38:17.687Z,99812.28
2023-03-26T08:41:14.601Z,99813.66
2023-03-26T08:44:36.280Z,99829.88
2023-03-26T08:47:31.229Z,99819.66
2023-03-26T08:50:33.438Z,99811.34
2023-03-26T08:53:42.921Z,99816.50
2023-03-26T08:56:27.316Z,99824.06
2023-03-26T08:59:34.680Z,99829.31
2023-03-26T09:02:58.027Z,99820.44
2023-03-26T09:06:04.263Z,99819.59
2023-03-26T09:08:59.131Z,99832.91
2023-03-26T09:12:20.324Z,99828.09
2023-03-26T09:15:24.489Z,99829.84
2023-03-26T09:18:31.508Z,99830.50
2023-03-26T09:21:47.046Z,99823.97
2023-03-26T09:24:54.261Z,99829.44
2023-03-26T09:28:08.047Z,99820.44
2023-03-26T09:31:22.562Z,99805.06
2023-03-26T09:34:29.958Z,99812.06
2023-03-26T09:37:33.287Z,99814.22
2023-03-26T09:40:20.202Z,99828.25
2023-03-26T09:43:01.407Z,99827.09
2023-03-26T09:45:49.166Z,99823.13
2023-03-26T09:48:42.191Z,99815.69
2023-03-26T09:51:37.653Z,99812.88
2023-03-26T09:54:31.772Z,99820.22
2023-03-26T09:57:33.449Z,99817.25
2023-03-26T10:00:18.732Z,99811.88
2023-03-26T10:03:40.821Z,99804.84
2023-03-26T10:07:21.805Z,99798.31
2023-03-26T10:10:32.206Z,99801.75
2023-03-26T10:13:30.858Z,99804.44
2023-03-26T10:16:12.958Z,99803.69
2023-03-26T10:19:20.046Z,99799.06
2023-03-26T10:22:27.023Z,99802.38
2023-03-26T10:25:22.163Z,99794.56
2023-03-26T10:28:33.576Z,99791.84
2023-03-26T10:31:42.526Z,99794.91
2023-03-26T10:34:44.215Z,99785.94
2023-03-26T10:37:32.223Z,99771.56
2023-03-26T10:40:57.101Z,99776.34
2023-03-26T10:44:21.840Z,99769.06
2023-03-26T10:47:22.709Z,99762.38
2023-03-26T10:50:23.594Z,99761.00
2023-03-26T10:53:21.710Z,99755.13
2023-03-26T10:56:00.168Z,99752.13
2023-03-26T10:58:48.515Z,99748.25
2023-03-26T11:01:28.778Z,99751.16
2023-03-26T11:04:14.550Z,99736.06
2023-03-26T11:07:00.185Z,99743.75
2023-03-26T11:09:37.575Z,99736.47
2023-03-26T11:12:28.889Z,99737.38
2023-03-26T11:15:26.061Z,99732.72
2023-03-26T11:18:08.227Z,99749.22
2023-03-26T11:20:46.307Z,99749.81
2023-03-26T11:23:37.362Z,99759.09
2023-03-26T11:26:52.878Z,99757.47
2023-03-26T11:29:42.191Z,99758.97
2023-03-26T11:32:23.834Z,99756.50
2023-03-26T11:35:40.683Z,99757.44
2023-03-26T11:38:39.413Z,99749.91
2023-03-26T11:41:32.932Z,99749.25
2023-03-26T11:44:06.373Z,99751.97
2023-03-26T11:46:40.142Z,99749.38
2023-03-26T11:49:13.295Z,99753.75
2023-03-26T11:51:43.500Z,99744.38
2023-03-26T11:54:12.974Z,99741.63
2023-03-26T11:57:05.569Z,99741.13
2023-03-26T11:59:55.701Z,99746.25
2023-03-26T12:02:29.321Z,99742.09
2023-03-26T12:05:18.100Z,99742.50
2023-03-26T12:07:53.236Z,99747.00
2023-03-26T12:10:29.957Z,99739.31
2023-03-26T12:13:02.333Z,99738.25
2023-03-26T12:15:32.070Z,99742.94
2023-03-26T12:18:23.791Z,99742.50
2023-03-26T12:21:08.488Z,99738.47
2023-03-26T12:23:58.432Z,99731.13
2023-03-26T12:26:41.498Z,99733.31
2023-03-26T12:29:14.325Z,99733.34
2023-03-26T12:31:45.754Z,99732.91
2023-03-26T12:34:20.986Z,99738.41
2023-03-26T12:36:57.238Z,99731.38
2023-03-26T12:40:10.313Z,99724.66
2023-03-26T12:44:44.588Z,99737.78
2023-03-26T12:45:24.146Z,99734.88
2023-03-26T12:48:00.563Z,99736.88
2023-03-26T12:51:09.003Z,99736.06
2023-03-26T12:54:16.470Z,99742.94
2023-03-26T12:57:13.229Z,99740.63
2023-03-26T12:59:54.105Z,99732.81
2023-03-26T13:02:53.051Z,99733.25
2023-03-26T13:05:54.579Z,99737.19
2023-03-26T13:09:03.490Z,99729.28
2023-03-26T13:12:10.344Z,99731.78
2023-03-26T13:15:00.439Z,99725.44
2023-03-26T13:17:50.999Z,99734.69
2023-03-26T13:20:49.540Z,99723.25
2023-03-26T13:24:29.089Z,99712.50
2023-03-26T13:27:08.836Z,99708.25
2023-03-26T13:29:43.736Z,99713.44
2023-03-26T13:33:12.620Z,99705.06
2023-03-26T13:36:00.221Z,99705.81
2023-03-26T13:38:59.184Z,99696.81
2023-03-26T13:41:51.722Z,99700.88
2023-03-26T13:44:40.910Z,99700.28
2023-03-26T13:47:19.553Z,99700.34
2023-03-26T13:49:55.204Z,99698.28
2023-03-26T13:52:36.714Z,99702.88
2023-03-26T13:55:28.283Z,99695.78
2023-03-26T13:58:10.890Z,99700.03
2023-03-26T14:01:09.415Z,99698.72
2023-03-26T14:04:17.868Z,99691.91
2023-03-26T14:06:57.887Z,99689.81
2023-03-26T14:09:53.420Z,99694.31
2023-03-26T14:12:34.032Z,99681.81
2023-03-26T14:15:06.440Z,99690.94
2023-03-26T14:18:22.654Z,99691.59
2023-03-26T14:21:11.570Z,99686.59
2023-03-26T14:24:15.854Z,99691.56
2023-03-26T14:27:06.600Z,99690.31
2023-03-26T14:29:57.489Z,99682.00
2023-03-26T14:32:45.895Z,99679.31
2023-03-26T14:35:42.829Z,99694.25
2023-03-26T14:38:32.820Z,99695.94
2023-03-26T14:41:29.408Z,99693.00
2023-03-26T14:44:52.065Z,99683.09
2023-03-26T14:47:21.875Z,99690.03
2023-03-26T14:50:31.504Z,99693.09
2023-03-26T14:53:05.784Z,99695.22
2023-03-26T14:55:54.669Z,99687.69
2023-03-26T14:59:14.622Z,99692.38
2023-03-26T15:02:11.513Z,99688.59
2023-03-26T15:05:12.816Z,99693.28
2023-03-26T15:08:07.466Z,99691.84
2023-03-26T15:10:59.734Z,99686.88
2023-03-26T15:14:09.454Z,99691.75
2023-03-26T15:17:01.664Z,99697.84
2023-03-26T15:20:00.033Z,99689.25
2023-03-26T15:22:45.197Z,99691.91
2023-03-26T15:26:07.708Z,99691.63
2023-03-26T15:28:47.048Z,99690.13
2023-03-26T15:31:23.208Z,99691.34
2023-03-26T15:34:27.496Z,99698.38
2023-03-26T15:37:10.696Z,99690.91
2023-03-26T15:40:07.366Z,99694.75
2023-03-26T15:43:12.384Z,99696.13
2023-03-26T15:45:56.216Z,99691.66
2023-03-26T15:48:57.841Z,99696.38
2023-03-26T15:52:21.445Z,99694.50
2023-03-26T15:55:27.664Z,99692.84
2023-03-26T15:58:24.726Z,99694.94
2023-03-26T16:01:09.515Z,99698.81
2023-03-26T16:03:58.539Z,99694.75
2023-03-26T16:06:48.374Z,99706.31
2023-03-26T16:09:45.737Z,99706.34
2023-03-26T16:12:12.777Z,99701.84
2023-03-26T16:14:47.215Z,99702.47
2023-03-26T16:17:23.509Z,99710.41
2023-03-26T16:20:09.329Z,99701.81
2023-03-26T16:23:06.915Z,99709.63
2023-03-26T16:25:54.069Z,99713.69
2023-03-26T16:28:36.754Z,99715.09
2023-03-26T16:31:35.392Z,99714.56
2023-03-26T16:34:03.030Z,99715.41
2023-03-26T16:36:37.085Z,99724.31
2023-03-26T16:39:04.810Z,99719.59
2023-03-26T16:41:56.215Z,99727.19
2023-03-26T16:44:42.500Z,99724.78
2023-03-26T16:47:38.656Z,99731.00
2023-03-26T16:50:43.951Z,99724.22
2023-03-26T16:54:17.438Z,99730.47
2023-03-26T16:57:19.725Z,99730.94
2023-03-26T17:00:30.371Z,99737.50
2023-03-26T17:03:27.088Z,99745.59
2023-03-26T17:05:54.234Z,99749.28
2023-03-26T17:08:53.323Z,99754.16
2023-03-26T17:11:54.867Z,99754.44
2023-03-26T17:15:30.387Z,99757.25
2023-03-26T17:18:28.842Z,99759.03
2023-03-26T17:21:24.176Z,99759.03
2023-03-26T17:24:02.082Z,99769.91
2023-03-26T17:26:51.051Z,99771.19
2023-03-26T17:29:28.653Z,99775.50
2023-03-26T17:32:12.370Z,99785.00
2023-03-26T17:34:40.290Z,99778.69
2023-03-26T17:37:18.803Z,99787.41
2023-03-26T17:39:48.777Z,99787.81
2023-03-26T17:42:15.991Z,99800.72
2023-03-26T17:44:49.344Z,99789.22
2023-03-26T17:47:32.746Z,99793.72
2023-03-26T17:50:10.597Z,99801.38
2023-03-26T17:52:56.477Z,99800.63
2023-03-26T17:55:34.801Z,99806.00
2023-03-26T17:58:20.374Z,99804.91
2023-03-26T18:00:57.029Z,99811.41
2023-03-26T18:03:34.425Z,99817.19
2023-03-26T18:06:47.156Z,99813.75
2023-03-26T18:09:37.665Z,99820.91
2023-03-26T18:12:42.383Z,99825.31
2023-03-26T18:15:21.652Z,99836.44
2023-03-26T18:17:48.962Z,99826.59
2023-03-26T18:20:28.980Z,99844.19
2023-03-26T18:22:57.394Z,99847.13
2023-03-26T18:25:32.105Z,99849.88
2023-03-26T18:28:02.071Z,99858.94
2023-03-26T18:30:29.744Z,99848.41
2023-03-26T18:33:13.260Z,99849.44
2023-03-26T18:35:46.168Z,99857.25
2023-03-26T18:38:36.163Z,99860.16
2023-03-26T18:41:15.301Z,99861.00
2023-03-26T18:43:44.750Z,99876.34
2023-03-26T18:46:15.698Z,99863.28
2023-03-26T18:48:44.106Z,99878.22
2023-03-26T18:51:12.150Z,99882.94
2023-03-26T18:54:02.897Z,99884.22
2023-03-26T18:56:39.413Z,99879.44
2023-03-26T18:59:29.009Z,99881.34
2023-03-26T19:01:58.964Z,99882.88
2023-03-26T19:04:30.807Z,99890.72
2023-03-26T19:06:58.675Z,99893.66
2023-03-26T19:09:32.206Z,99891.63
2023-03-26T19:12:08.837Z,99895.97
2023-03-26T19:14:54.740Z,99903.81
2023-03-26T19:17:29.516Z,99902.72
2023-03-26T19:19:57.592Z,99907.34
2023-03-26T19:22:26.445Z,99915.41
2023-03-26T19:25:00.799Z,99923.09
2023-03-26T19:27:28.876Z,99922.16
2023-03-26T19:29:56.116Z,99928.63
2023-03-26T19:32:32.778Z,99922.81
2023-03-26T19:35:02.224Z,99930.22
2023-03-26T19:37:31.613Z,99936.91
2023-03-26T19:40:29.770Z,99935.97
2023-03-26T19:43:02.687Z,99938.00
2023-03-26T19:45:34.799Z,99940.81
2023-03-26T19:48:14.220Z,99940.22
2023-03-26T19:50:54.653Z,99944.53
2023-03-26T19:53:32.644Z,99952.81
2023-03-26T19:56:13.057Z,99954.16
2023-03-26T19:58:42.664Z,99953.38
2023-03-26T20:01:18.986Z,99956.88
2023-03-26T20:03:51.510Z,99957.53
2023-03-26T20:06:30.758Z,99969.56
2023-03-26T20:09:05.988Z,99965.25
2023-03-26T20:11:38.403Z,99973.25
2023-03-26T20:14:25.678Z,99968.88
2023-03-26T20:16:53.000Z,99966.69
2023-03-26T20:19:20.574Z,99973.72
2023-03-26T20:21:47.744Z,99969.75
2023-03-26T20:24:18.243Z,99976.31
2023-03-26T20:26:47.012Z,99972.63
2023-03-26T20:29:15.363Z,99981.69
2023-03-26T20:31:43.933Z,99990.72
2023-03-26T20:34:21.052Z,99988.22
2023-03-26T20:37:01.385Z,99988.84
2023-03-26T20:39:30.453Z,99982.38
2023-03-26T20:42:00.434Z,99988.09
2023-03-26T20:44:27.973Z,99996.19
2023-03-26T20:46:56.506Z,100001.72
2023-03-26T20:49:24.945Z,100000.03
2023-03-26T20:51:52.645Z,100011.91
2023-03-26T20:54:25.878Z,100018.72
2023-03-26T20:56:54.439Z,100014.75
2023-03-26T20:59:26.548Z,100016.13
2023-03-26T21:01:57.174Z,100031.44
2023-03-26T21:04:26.325Z,100024.63
2023-03-26T21:07:00.251Z,100029.38
2023-03-26T21:09:34.895Z,100016.81
2023-03-26T21:12:16.826Z,100033.00
2023-03-26T21:14:44.619Z,100033.97
2023-03-26T21:17:16.604Z,100036.69
2023-03-26T21:19:45.212Z,100037.63
2023-03-26T21:22:18.149Z,100034.34
2023-03-26T21:24:58.949Z,100038.97
2023-03-26T21:27:39.136Z,100047.09
2023-03-26T21:30:14.398Z,100048.81
2023-03-26T21:32:44.889Z,100051.75
2023-03-26T21:35:14.747Z,100051.19
2023-03-26T21:37:45.507Z,100057.69
2023-03-26T21:40:17.914Z,100060.94
2023-03-26T21:42:51.460Z,100072.19
2023-03-26T21:45:20.993Z,100081.06
2023-03-26T21:47:49.461Z,100083.09
2023-03-26T21:50:21.736Z,100088.00
2023-03-26T21:52:51.250Z,100092.56
2023-03-26T21:55:22.201Z,100096.34
2023-03-26T21:58:07.294Z,100100.63
2023-03-26T22:01:15.967Z,100104.66
2023-03-26T22:04:15.507Z,100102.78
2023-03-26T22:06:54.264Z,100112.03
2023-03-26T22:09:33.739Z,100104.97
2023-03-26T22:12:05.300Z,100115.38
2023-03-26T22:14:33.755Z,100117.00
2023-03-26T22:17:00.922Z,100124.31
2023-03-26T22:19:30.152Z,100122.16
2023-03-26T22:21:58.327Z,100124.03
2023-03-26T22:24:26.012Z,100121.16
2023-03-26T22:26:53.194Z,100125.31
2023-03-26T22:29:20.841Z,100130.81
2023-03-26T22:31:47.990Z,100132.84
2023-03-26T22:34:15.325Z,100135.28
2023-03-26T22:36:42.525Z,100146.03
2023-03-26T22:39:09.680Z,100152.09
2023-03-26T22:41:37.111Z,100152.38
2023-03-26T22:44:19.138Z,100156.06
2023-03-26T22:46:51.018Z,100153.66
2023-03-26T22:49:18.321Z,100167.59
2023-03-26T22:51:45.735Z,100171.91
2023-03-26T22:54:13.148Z,100174.31
2023-03-26T22:56:40.520Z,100180.31
2023-03-26T22:59:07.708Z,100186.63
2023-03-26T23:01:36.132Z,100189.19
2023-03-26T23:04:03.805Z,100188.28
2023-03-26T23:06:31.645Z,100210.53
2023-03-26T23:08:58.946Z,100197.88
2023-03-26T23:11:26.643Z,100206.53
2023-03-26T23:13:53.894Z,100202.84
2023-03-26T23:16:21.706Z,100205.06
2023-03-26T23:18:49.004Z,100206.59
2023-03-26T23:21:21.965Z,100221.50
2023-03-26T23:23:51.603Z,100224.13
2023-03-26T23:26:18.964Z,100237.22
2023-03-26T23:28:46.108Z,100237.34
2023-03-26T23:31:13.946Z,100229.75
2023-03-26T23:33:46.170Z,100235.56
2023-03-26T23:36:18.145Z,100247.13
2023-03-26T23:38:48.356Z,100253.72
2023-03-26T23:41:21.298Z,100251.50
2023-03-26T23:43:56.457Z,100263.09
2023-03-26T23:46:30.814Z,100270.63
2023-03-26T23:49:04.473Z,100268.16
2023-03-26T23:51:32.766Z,100278.53
2023-03-26T23:54:01.418Z,100275.78
2023-03-26T23:56:29.912Z,100288.09
2023-03-26T23:58:59.087Z,100295.31
